createdAt,value
2022-11-08T00:02:03.435Z,100610.22
2022-11-08T00:04:30.029Z,100608.44
2022-11-08T00:07:14.996Z,100604.22
2022-11-08T00:10:00.030Z,100603.41
2022-11-08T00:12:45.122Z,100599.75
2022-11-08T00:15:11.660Z,100592.72
2022-11-08T00:17:38.005Z,100600.53
2022-11-08T00:20:05.386Z,100604.91
2022-11-08T00:22:32.003Z,100604.84
2022-11-08T00:24:58.811Z,100605.66
2022-11-08T00:27:25.442Z,100608.28
2022-11-08T00:29:51.783Z,100614.34
2022-11-08T00:32:20.658Z,100615.13
2022-11-08T00:34:48.549Z,100608.09
2022-11-08T00:37:19.430Z,100614.84
2022-11-08T00:39:46.046Z,100607.06
2022-11-08T00:42:12.432Z,100605.47
2022-11-08T00:44:38.781Z,100608.09
2022-11-08T00:47:05.359Z,100606.16
2022-11-08T00:49:32.015Z,100609.59
2022-11-08T00:51:58.457Z,100599.94
2022-11-08T00:54:24.836Z,100601.53
2022-11-08T00:56:51.237Z,100604.09
2022-11-08T00:59:19.635Z,100604.03
2022-11-08T01:01:47.224Z,100610.13
2022-11-08T01:04:17.803Z,100610.22
2022-11-08T01:06:44.799Z,100612.84
2022-11-08T01:09:11.302Z,100604.63
2022-11-08T01:11:38.866Z,100611.03
2022-11-08T01:14:05.289Z,100613.75
2022-11-08T01:16:33.191Z,100616.19
2022-11-08T01:19:00.274Z,100611.13
2022-11-08T01:21:27.030Z,100612.06
2022-11-08T01:23:56.975Z,100610.22
2022-11-08T01:26:25.773Z,100612.03
2022-11-08T01:28:52.826Z,100611.47
2022-11-08T01:31:21.962Z,100605.75
2022-11-08T01:33:51.363Z,100613.75
2022-11-08T01:36:21.607Z,100610.38
2022-11-08T01:38:47.998Z,100609.44
2022-11-08T01:41:15.738Z,100606.09
2022-11-08T01:43:43.242Z,100604.38
2022-11-08T01:46:09.556Z,100597.47
2022-11-08T01:48:39.789Z,100603.72
2022-11-08T01:51:08.258Z,100595.88
2022-11-08T01:53:35.723Z,100599.31
2022-11-08T01:56:02.797Z,100610.38
2022-11-08T01:58:35.068Z,100597.28
2022-11-08T02:01:02.263Z,100602.53
2022-11-08T02:03:33.679Z,100600.00
2022-11-08T02:06:01.549Z,100599.84
2022-11-08T02:08:34.450Z,100600.66
2022-11-08T02:11:01.778Z,100592.16
2022-11-08T02:13:30.341Z,100591.22
2022-11-08T02:15:57.227Z,100597.28
2022-11-08T02:18:26.467Z,100592.16
2022-11-08T02:21:00.713Z,100589.56
2022-11-08T02:23:28.415Z,100581.00
2022-11-08T02:25:55.038Z,100577.81
2022-11-08T02:28:21.505Z,100578.75
2022-11-08T02:30:47.945Z,100580.47
2022-11-08T02:33:16.113Z,100584.81
2022-11-08T02:35:44.521Z,100578.09
2022-11-08T02:38:10.872Z,100580.75
2022-11-08T02:40:55.332Z,100579.06
2022-11-08T02:43:23.249Z,100583.38
2022-11-08T02:45:50.301Z,100582.31
2022-11-08T02:48:18.217Z,100588.34
2022-11-08T02:50:44.998Z,100581.22
2022-11-08T02:53:11.910Z,100586.50
2022-11-08T02:55:38.700Z,100586.63
2022-11-08T02:58:05.168Z,100581.28
2022-11-08T03:00:32.364Z,100576.00
2022-11-08T03:02:58.918Z,100577.72
2022-11-08T03:05:27.030Z,100576.81
2022-11-08T03:07:54.559Z,100581.22
2022-11-08T03:10:22.210Z,100572.50
2022-11-08T03:12:58.603Z,100573.47
2022-11-08T03:15:25.758Z,100580.22
2022-11-08T03:17:52.239Z,100583.06
2022-11-08T03:20:18.905Z,100583.84
2022-11-08T03:22:46.052Z,100583.66
2022-11-08T03:25:12.623Z,100587.19
2022-11-08T03:27:39.004Z,100582.97
2022-11-08T03:30:06.912Z,100583.13
2022-11-08T03:32:33.316Z,100577.16
2022-11-08T03:35:00.778Z,100581.56
2022-11-08T03:37:27.134Z,100579.94
2022-11-08T03:39:53.418Z,100571.31
2022-11-08T03:42:19.716Z,100581.78
2022-11-08T03:44:46.444Z,100582.63
2022-11-08T03:47:12.796Z,100589.59
2022-11-08T03:49:39.066Z,100584.53
2022-11-08T03:52:05.344Z,100580.31
2022-11-08T03:54:31.671Z,100585.56
2022-11-08T03:56:58.009Z,100588.25
2022-11-08T03:59:24.293Z,100585.78
2022-11-08T04:01:50.848Z,100582.41
2022-11-08T04:04:17.281Z,100579.03
2022-11-08T04:06:43.562Z,100580.81
2022-11-08T04:09:10.936Z,100590.25
2022-11-08T04:11:56.006Z,100580.06
2022-11-08T04:14:41.272Z,100588.16
2022-11-08T04:17:07.556Z,100581.47
2022-11-08T04:19:52.486Z,100583.16
2022-11-08T04:22:18.823Z,100580.41
2022-11-08T04:24:45.159Z,100581.34
2022-11-08T04:27:11.474Z,100577.03
2022-11-08T04:29:37.784Z,100577.19
2022-11-08T04:32:04.264Z,100578.94
2022-11-08T04:34:30.554Z,100574.00
2022-11-08T04:36:56.818Z,100575.94
2022-11-08T04:39:23.103Z,100574.38
2022-11-08T04:41:49.438Z,100576.97
2022-11-08T04:44:18.218Z,100580.53
2022-11-08T04:46:44.504Z,100581.34
2022-11-08T04:49:10.853Z,100575.22
2022-11-08T04:51:37.168Z,100579.06
2022-11-08T04:54:04.942Z,100575.78
2022-11-08T04:56:31.592Z,100584.44
2022-11-08T04:59:00.188Z,100581.91
2022-11-08T05:01:29.602Z,100581.25
2022-11-08T05:03:56.635Z,100591.75
2022-11-08T05:06:31.057Z,100584.78
2022-11-08T05:08:58.914Z,100581.31
2022-11-08T05:11:27.568Z,100589.25
2022-11-08T05:13:54.247Z,100584.09
2022-11-08T05:16:23.625Z,100582.47
2022-11-08T05:18:50.711Z,100581.50
2022-11-08T05:21:37.722Z,100583.28
2022-11-08T05:24:06.127Z,100580.66
2022-11-08T05:26:37.496Z,100590.22
2022-11-08T05:29:04.629Z,100573.88
2022-11-08T05:31:31.837Z,100583.41
2022-11-08T05:33:59.959Z,100573.94
2022-11-08T05:36:27.177Z,100586.25
2022-11-08T05:38:54.073Z,100573.22
2022-11-08T05:41:22.911Z,100578.59
2022-11-08T05:43:50.881Z,100580.28
2022-11-08T05:46:18.988Z,100583.69
2022-11-08T05:48:46.800Z,100580.31
2022-11-08T05:51:14.940Z,100576.84
2022-11-08T05:53:41.457Z,100571.75
2022-11-08T05:56:08.758Z,100580.41
2022-11-08T05:58:35.765Z,100574.41
2022-11-08T06:01:05.167Z,100572.72
2022-11-08T06:03:32.358Z,100576.16
2022-11-08T06:06:14.043Z,100576.28
2022-11-08T06:08:42.496Z,100572.84
2022-11-08T06:11:14.128Z,100577.19
2022-11-08T06:13:41.012Z,100569.53
2022-11-08T06:16:10.346Z,100574.63
2022-11-08T06:18:38.065Z,100567.78
2022-11-08T06:21:06.562Z,100570.34
2022-11-08T06:23:33.532Z,100575.59
2022-11-08T06:26:00.709Z,100569.59
2022-11-08T06:28:27.116Z,100573.16
2022-11-08T06:30:53.742Z,100576.50
2022-11-08T06:33:20.894Z,100580.03
2022-11-08T06:35:47.653Z,100576.59
2022-11-08T06:38:13.972Z,100573.16
2022-11-08T06:40:40.636Z,100568.81
2022-11-08T06:43:07.148Z,100562.75
2022-11-08T06:45:33.456Z,100567.09
2022-11-08T06:48:01.554Z,100565.19
2022-11-08T06:50:29.842Z,100568.69
2022-11-08T06:53:05.650Z,100560.03
2022-11-08T06:55:32.728Z,100562.75
2022-11-08T06:57:59.418Z,100559.97
2022-11-08T07:00:26.895Z,100563.44
2022-11-08T07:02:54.487Z,100560.88
2022-11-08T07:05:21.339Z,100565.19
2022-11-08T07:07:51.953Z,100566.16
2022-11-08T07:10:23.139Z,100565.13
2022-11-08T07:12:58.908Z,100559.06
2022-11-08T07:15:25.226Z,100558.19
2022-11-08T07:17:51.550Z,100553.69
2022-11-08T07:20:18.065Z,100554.44
2022-11-08T07:22:44.354Z,100549.28
2022-11-08T07:25:10.649Z,100547.59
2022-11-08T07:27:36.970Z,100547.63
2022-11-08T07:30:03.679Z,100554.50
2022-11-08T07:32:29.992Z,100551.09
2022-11-08T07:34:56.291Z,100551.78
2022-11-08T07:37:22.641Z,100556.97
2022-11-08T07:39:48.924Z,100550.97
2022-11-08T07:42:15.198Z,100547.50
2022-11-08T07:44:41.534Z,100542.13
2022-11-08T07:47:07.817Z,100552.38
2022-11-08T07:49:35.844Z,100555.69
2022-11-08T07:52:02.394Z,100551.09
2022-11-08T07:54:28.730Z,100557.00
2022-11-08T07:56:55.119Z,100549.13
2022-11-08T07:59:21.454Z,100545.47
2022-11-08T08:01:47.818Z,100542.72
2022-11-08T08:04:14.246Z,100539.16
2022-11-08T08:06:40.652Z,100547.81
2022-11-08T08:09:06.980Z,100543.28
2022-11-08T08:11:34.003Z,100543.97
2022-11-08T08:14:00.621Z,100537.03
2022-11-08T08:16:26.969Z,100538.69
2022-11-08T08:18:56.295Z,100529.13
2022-11-08T08:21:23.443Z,100528.31
2022-11-08T08:23:49.740Z,100528.13
2022-11-08T08:26:16.050Z,100527.97
2022-11-08T08:28:42.341Z,100528.72
2022-11-08T08:31:08.678Z,100533.00
2022-11-08T08:33:35.067Z,100535.56
2022-11-08T08:36:01.778Z,100522.59
2022-11-08T08:38:28.725Z,100530.97
2022-11-08T08:40:55.095Z,100519.44
2022-11-08T08:43:21.884Z,100528.06
2022-11-08T08:45:48.902Z,100528.00
2022-11-08T08:48:15.621Z,100522.75
2022-11-08T08:50:42.077Z,100508.78
2022-11-08T08:53:08.481Z,100525.22
2022-11-08T08:55:37.651Z,100506.97
2022-11-08T08:58:04.571Z,100514.63
2022-11-08T09:03:17.811Z,100503.28
2022-11-08T09:05:46.481Z,100505.56
2022-11-08T09:08:14.379Z,100507.97
2022-11-08T09:10:41.183Z,100504.44
2022-11-08T09:13:07.557Z,100505.25
2022-11-08T09:15:33.875Z,100504.09
2022-11-08T09:18:00.361Z,100503.03
2022-11-08T09:20:26.966Z,100488.81
2022-11-08T09:22:53.280Z,100481.66
2022-11-08T09:25:19.685Z,100475.63
2022-11-08T09:27:45.957Z,100477.94
2022-11-08T09:30:12.444Z,100476.00
2022-11-08T09:32:59.849Z,100478.59
2022-11-08T09:35:25.019Z,100480.28
2022-11-08T09:37:54.577Z,100479.00
2022-11-08T09:40:46.554Z,100470.94
2022-11-08T09:43:34.681Z,100466.66
2022-11-08T09:46:01.132Z,100471.03
2022-11-08T09:48:34.214Z,100466.59
2022-11-08T09:51:16.820Z,100464.13
2022-11-08T09:53:52.157Z,100463.88
2022-11-08T09:56:21.524Z,100460.41
2022-11-08T09:58:54.205Z,100463.59
2022-11-08T10:01:26.699Z,100454.69
2022-11-08T10:03:57.776Z,100449.97
2022-11-08T10:07:01.064Z,100458.50
2022-11-08T10:09:54.535Z,100441.09
2022-11-08T10:12:33.037Z,100436.63
2022-11-08T10:15:19.184Z,100451.47
2022-11-08T10:18:27.122Z,100443.53
2022-11-08T10:21:05.701Z,100439.66
2022-11-08T10:23:36.677Z,100431.84
2022-11-08T10:26:11.979Z,100421.56
2022-11-08T10:28:50.152Z,100416.34
2022-11-08T10:31:19.363Z,100415.41
2022-11-08T10:33:51.880Z,100408.91
2022-11-08T10:36:24.097Z,100403.66
2022-11-08T10:39:00.809Z,100398.22
2022-11-08T10:41:39.638Z,100390.97
2022-11-08T10:44:19.745Z,100389.59
2022-11-08T10:46:50.154Z,100378.94
2022-11-08T10:49:27.131Z,100370.03
2022-11-08T10:51:56.690Z,100372.81
2022-11-08T10:54:47.918Z,100369.69
2022-11-08T10:57:31.448Z,100360.75
2022-11-08T11:00:33.168Z,100360.94
2022-11-08T11:03:28.600Z,100352.19
2022-11-08T11:06:04.579Z,100351.97
2022-11-08T11:08:32.182Z,100343.41
2022-11-08T11:11:37.718Z,100332.19
2022-11-08T11:14:13.066Z,100333.06
2022-11-08T11:16:55.206Z,100334.22
2022-11-08T11:19:22.598Z,100332.44
2022-11-08T11:21:55.490Z,100324.75
2022-11-08T11:24:22.212Z,100324.53
2022-11-08T11:27:18.684Z,100322.78
2022-11-08T11:29:44.981Z,100323.63
2022-11-08T11:32:33.558Z,100328.75
2022-11-08T11:35:03.127Z,100321.56
2022-11-08T11:37:35.611Z,100320.47
2022-11-08T11:40:03.973Z,100320.41
2022-11-08T11:43:01.152Z,100328.63
2022-11-08T11:45:38.538Z,100323.28
2022-11-08T11:48:14.756Z,100324.03
2022-11-08T11:50:45.613Z,100313.47
2022-11-08T11:53:22.603Z,100305.59
2022-11-08T11:56:06.588Z,100314.94
2022-11-08T11:58:58.145Z,100317.25
2022-11-08T12:01:48.071Z,100304.03
2022-11-08T12:04:45.087Z,100303.00
2022-11-08T12:07:21.771Z,100291.56
2022-11-08T12:10:13.420Z,100282.41
2022-11-08T12:13:00.398Z,100277.03
2022-11-08T12:15:29.351Z,100273.78
2022-11-08T12:18:01.446Z,100267.38
2022-11-08T12:20:36.970Z,100258.09
2022-11-08T12:23:22.011Z,100251.97
2022-11-08T12:25:53.785Z,100250.78
2022-11-08T12:28:52.489Z,100256.53
2022-11-08T12:31:40.925Z,100251.81
2022-11-08T12:34:20.394Z,100240.59
2022-11-08T12:37:14.660Z,100251.69
2022-11-08T12:39:46.750Z,100246.63
2022-11-08T12:42:34.494Z,100236.06
2022-11-08T12:45:31.896Z,100237.66
2022-11-08T12:48:32.064Z,100238.09
2022-11-08T12:51:10.570Z,100238.94
2022-11-08T12:53:48.645Z,100237.84
2022-11-08T12:56:42.798Z,100233.66
2022-11-08T12:59:21.026Z,100229.31
2022-11-08T13:01:48.960Z,100230.81
2022-11-08T13:04:38.436Z,100227.94
2022-11-08T13:07:30.246Z,100222.53
2022-11-08T13:10:00.546Z,100226.97
2022-11-08T13:12:48.604Z,100228.69
2022-11-08T13:15:21.814Z,100223.09
2022-11-08T13:18:06.270Z,100222.25
2022-11-08T13:20:38.570Z,100217.47
2022-11-08T13:23:13.225Z,100211.50
2022-11-08T13:25:41.314Z,100214.91
2022-11-08T13:28:35.438Z,100221.44
2022-11-08T13:31:11.049Z,100208.22
2022-11-08T13:33:42.328Z,100216.69
2022-11-08T13:36:16.414Z,100209.81
2022-11-08T13:39:25.148Z,100202.72
2022-11-08T13:42:05.313Z,100215.91
2022-11-08T13:44:57.141Z,100209.81
2022-11-08T13:47:32.730Z,100202.66
2022-11-08T13:50:33.660Z,100198.13
2022-11-08T13:53:18.689Z,100198.84
2022-11-08T13:55:57.083Z,100196.97
2022-11-08T13:58:32.621Z,100197.88
2022-11-08T14:01:01.225Z,100190.13
2022-11-08T14:03:33.578Z,100197.34
2022-11-08T14:06:08.120Z,100179.38
2022-11-08T14:09:14.555Z,100181.34
2022-11-08T14:12:04.244Z,100184.94
2022-11-08T14:14:33.881Z,100186.97
2022-11-08T14:17:18.304Z,100194.63
2022-11-08T14:19:46.283Z,100178.31
2022-11-08T14:22:25.702Z,100183.63
2022-11-08T14:24:58.169Z,100184.41
2022-11-08T14:27:36.972Z,100187.13
2022-11-08T14:30:06.407Z,100194.78
2022-11-08T14:32:32.791Z,100192.22
2022-11-08T14:35:12.147Z,100188.56
2022-11-08T14:37:41.018Z,100184.63
2022-11-08T14:40:15.858Z,100183.56
2022-11-08T14:42:44.502Z,100189.22
2022-11-08T14:45:15.580Z,100177.22
2022-11-08T14:47:43.470Z,100177.31
2022-11-08T14:50:18.892Z,100184.31
2022-11-08T14:52:45.549Z,100192.44
2022-11-08T14:55:14.230Z,100177.56
2022-11-08T14:57:45.745Z,100174.81
2022-11-08T15:00:15.804Z,100180.91
2022-11-08T15:02:47.793Z,100181.19
2022-11-08T15:05:32.449Z,100177.59
2022-11-08T15:08:01.902Z,100173.28
2022-11-08T15:10:29.092Z,100180.09
2022-11-08T15:12:56.223Z,100172.25
2022-11-08T15:15:28.043Z,100175.66
2022-11-08T15:18:15.736Z,100184.56
2022-11-08T15:21:16.402Z,100178.56
2022-11-08T15:23:47.831Z,100162.25
2022-11-08T15:26:21.542Z,100156.31
2022-11-08T15:29:17.248Z,100146.75
2022-11-08T15:31:55.565Z,100147.97
2022-11-08T15:34:37.762Z,100141.78
2022-11-08T15:37:27.921Z,100137.72
2022-11-08T15:39:54.727Z,100139.28
2022-11-08T15:42:21.989Z,100139.41
2022-11-08T15:45:04.760Z,100141.06
2022-11-08T15:47:35.578Z,100139.09
2022-11-08T15:50:02.090Z,100141.06
2022-11-08T15:52:28.354Z,100141.91
2022-11-08T15:54:54.623Z,100154.03
2022-11-08T15:57:21.695Z,100155.22
2022-11-08T15:59:48.171Z,100141.22
2022-11-08T16:02:14.848Z,100141.06
2022-11-08T16:04:41.174Z,100143.00
2022-11-08T16:07:07.714Z,100145.31
2022-11-08T16:09:34.044Z,100144.50
2022-11-08T16:12:02.750Z,100143.78
2022-11-08T16:14:29.185Z,100145.72
2022-11-08T16:16:55.719Z,100133.56
2022-11-08T16:19:24.692Z,100131.66
2022-11-08T16:21:52.378Z,100118.81
2022-11-08T16:24:18.922Z,100116.13
2022-11-08T16:26:46.714Z,100127.16
2022-11-08T16:29:23.985Z,100134.53
2022-11-08T16:31:51.418Z,100130.22
2022-11-08T16:34:18.335Z,100135.59
2022-11-08T16:36:46.539Z,100128.63
2022-11-08T16:39:22.612Z,100121.09
2022-11-08T16:41:49.074Z,100116.69
2022-11-08T16:44:15.541Z,100109.84
2022-11-08T16:46:42.088Z,100118.88
2022-11-08T16:49:21.259Z,100115.41
2022-11-08T16:51:48.374Z,100111.69
2022-11-08T16:54:20.987Z,100116.31
2022-11-08T16:56:47.305Z,100117.06
2022-11-08T16:59:14.858Z,100112.06
2022-11-08T17:01:42.375Z,100109.31
2022-11-08T17:04:08.728Z,100104.97
2022-11-08T17:06:35.100Z,100105.78
2022-11-08T17:09:01.437Z,100121.72
2022-11-08T17:11:27.768Z,100128.84
2022-11-08T17:13:55.163Z,100128.66
2022-11-08T17:16:21.535Z,100121.84
2022-11-08T17:18:52.399Z,100133.13
2022-11-08T17:24:06.151Z,100137.16
2022-11-08T17:26:32.594Z,100141.47
2022-11-08T17:28:58.880Z,100150.03
2022-11-08T17:31:25.169Z,100148.38
2022-11-08T17:33:51.488Z,100147.50
2022-11-08T17:36:17.814Z,100158.00
2022-11-08T17:38:44.537Z,100151.19
2022-11-08T17:41:13.257Z,100152.09
2022-11-08T17:43:40.447Z,100144.81
2022-11-08T17:46:07.679Z,100144.94
2022-11-08T17:48:34.605Z,100146.63
2022-11-08T17:51:00.983Z,100155.63
2022-11-08T17:53:27.574Z,100155.41
2022-11-08T17:55:56.493Z,100150.28
2022-11-08T17:58:23.989Z,100155.88
2022-11-08T18:00:55.447Z,100154.72
2022-11-08T18:03:22.677Z,100155.28
2022-11-08T18:05:59.560Z,100155.28
2022-11-08T18:08:27.428Z,100153.69
2022-11-08T18:10:54.624Z,100153.69
2022-11-08T18:13:21.719Z,100144.81
2022-11-08T18:15:49.628Z,100151.97
2022-11-08T18:18:16.987Z,100152.06
2022-11-08T18:20:43.309Z,100152.97
2022-11-08T18:23:12.758Z,100161.47
2022-11-08T18:25:39.110Z,100156.34
2022-11-08T18:28:05.878Z,100160.75
2022-11-08T18:30:32.931Z,100153.94
2022-11-08T18:32:59.252Z,100153.69
2022-11-08T18:35:27.813Z,100155.50
2022-11-08T18:37:55.231Z,100159.06
2022-11-08T18:40:21.973Z,100150.28
2022-11-08T18:42:48.875Z,100154.06
2022-11-08T18:45:15.248Z,100154.91
2022-11-08T18:47:41.649Z,100152.41
2022-11-08T18:50:09.425Z,100155.25
2022-11-08T18:52:36.776Z,100143.00
2022-11-08T18:55:04.801Z,100144.94
2022-11-08T18:57:31.081Z,100142.22
2022-11-08T19:00:01.078Z,100149.66
2022-11-08T19:02:27.647Z,100151.97
2022-11-08T19:04:53.934Z,100148.63
2022-11-08T19:07:20.397Z,100146.94
2022-11-08T19:09:47.310Z,100146.47
2022-11-08T19:12:13.626Z,100154.34
2022-11-08T19:14:39.908Z,100155.13
2022-11-08T19:17:06.258Z,100161.59
2022-11-08T19:19:32.578Z,100165.06
2022-11-08T19:21:59.006Z,100162.75
2022-11-08T19:24:25.363Z,100171.06
2022-11-08T19:26:51.806Z,100165.03
2022-11-08T19:29:18.206Z,100163.94
2022-11-08T19:31:45.331Z,100172.91
2022-11-08T19:34:12.182Z,100155.41
2022-11-08T19:36:43.192Z,100158.53
2022-11-08T19:39:11.621Z,100167.03
2022-11-08T19:41:39.048Z,100166.06
2022-11-08T19:44:06.766Z,100161.66
2022-11-08T19:46:33.905Z,100165.88
2022-11-08T19:49:02.522Z,100157.91
2022-11-08T19:51:31.599Z,100160.63
2022-11-08T19:54:04.931Z,100156.13
2022-11-08T19:59:18.895Z,100147.97
2022-11-08T20:01:46.271Z,100161.13
2022-11-08T20:04:14.298Z,100162.03
2022-11-08T20:06:41.618Z,100160.38
2022-11-08T20:09:09.170Z,100155.88
2022-11-08T20:11:37.534Z,100159.34
2022-11-08T20:14:04.871Z,100166.25
2022-11-08T20:16:37.886Z,100171.44
2022-11-08T20:19:07.572Z,100169.91
2022-11-08T20:21:34.366Z,100172.56
2022-11-08T20:24:00.987Z,100172.06
2022-11-08T20:26:27.577Z,100175.47
2022-11-08T20:28:56.642Z,100173.59
2022-11-08T20:31:24.283Z,100178.84
2022-11-08T20:33:53.141Z,100178.03
2022-11-08T20:36:24.143Z,100182.41
2022-11-08T20:38:55.885Z,100191.31
2022-11-08T20:41:22.548Z,100188.84
2022-11-08T20:43:48.878Z,100183.50
2022-11-08T20:46:18.048Z,100181.84
2022-11-08T20:48:45.154Z,100192.38
2022-11-08T20:51:13.452Z,100183.63
2022-11-08T20:53:40.071Z,100187.19
2022-11-08T20:56:12.250Z,100194.19
2022-11-08T20:58:38.752Z,100187.38
2022-11-08T21:01:07.251Z,100185.72
2022-11-08T21:03:34.612Z,100184.69
2022-11-08T21:06:05.942Z,100176.81
2022-11-08T21:11:20.464Z,100183.00
2022-11-08T21:13:47.605Z,100182.19
2022-11-08T21:16:29.387Z,100182.59
2022-11-08T21:18:57.376Z,100178.16
2022-11-08T21:21:24.159Z,100186.34
2022-11-08T21:23:51.036Z,100185.69
2022-11-08T21:26:19.026Z,100180.16
2022-11-08T21:28:45.932Z,100183.59
2022-11-08T21:31:12.570Z,100185.69
2022-11-08T21:33:39.198Z,100183.06
2022-11-08T21:36:06.031Z,100178.59
2022-11-08T21:38:35.607Z,100185.72
2022-11-08T21:41:07.134Z,100185.69
2022-11-08T21:43:45.151Z,100188.94
2022-11-08T21:46:32.143Z,100185.50
2022-11-08T21:49:01.500Z,100187.22
2022-11-08T21:51:29.484Z,100185.44
2022-11-08T21:53:57.674Z,100187.47
2022-11-08T21:56:26.015Z,100182.94
2022-11-08T21:58:52.685Z,100181.69
2022-11-08T22:01:19.727Z,100187.22
2022-11-08T22:03:46.637Z,100182.94
2022-11-08T22:06:13.081Z,100185.03
2022-11-08T22:08:39.382Z,100191.13
2022-11-08T22:11:06.080Z,100191.91
2022-11-08T22:13:32.494Z,100186.56
2022-11-08T22:15:58.835Z,100193.78
2022-11-08T22:18:50.739Z,100189.84
2022-11-08T22:21:30.058Z,100200.03
2022-11-08T22:23:56.362Z,100197.53
2022-11-08T22:26:22.666Z,100194.16
2022-11-08T22:28:48.956Z,100182.75
2022-11-08T22:31:15.377Z,100194.25
2022-11-08T22:33:41.920Z,100199.28
2022-11-08T22:36:08.579Z,100194.16
2022-11-08T22:38:35.886Z,100193.53
2022-11-08T22:41:02.187Z,100186.59
2022-11-08T22:43:28.781Z,100194.03
2022-11-08T22:45:55.076Z,100184.34
2022-11-08T22:48:22.613Z,100188.91
2022-11-08T22:50:48.899Z,100180.41
2022-11-08T22:53:15.196Z,100196.19
2022-11-08T22:55:41.606Z,100196.25
2022-11-08T22:58:07.945Z,100195.44
2022-11-08T23:00:34.230Z,100184.25
2022-11-08T23:03:00.574Z,100182.91
2022-11-08T23:05:26.879Z,100190.81
2022-11-08T23:07:53.867Z,100181.06
2022-11-08T23:10:20.440Z,100184.72
2022-11-08T23:13:05.480Z,100182.91
2022-11-08T23:15:52.909Z,100179.09
2022-11-08T23:18:20.921Z,100179.75
2022-11-08T23:21:05.565Z,100175.44
2022-11-08T23:23:50.481Z,100173.59
2022-11-08T23:26:38.130Z,100179.59
2022-11-08T23:29:23.307Z,100177.09
2022-11-08T23:31:49.603Z,100183.78
2022-11-08T23:34:15.939Z,100186.53
2022-11-08T23:36:42.217Z,100181.41
2022-11-08T23:39:08.495Z,100182.47
2022-11-08T23:41:53.234Z,100189.66
2022-11-08T23:44:25.752Z,100203.66
2022-11-08T23:46:56.509Z,100194.69
2022-11-08T23:49:23.475Z,100204.06
2022-11-08T23:51:49.959Z,100198.13
2022-11-08T23:54:16.926Z,100197.50
2022-11-08T23:56:43.935Z,100195.63
2022-11-08T23:59:11.276Z,100200.91
